sensor_id;sensor_type;location;lat;lon;timestamp;P1;durP1;ratioP1;P2;durP2;ratioP2
76854;SDS011;66343;44.588;33.450;2023-02-13T00:00:22;5.78;;;1.08;;
76854;SDS011;66343;44.588;33.450;2023-02-13T00:02:52;4.13;;;1.10;;
76854;SDS011;66343;44.588;33.450;2023-02-13T00:05:21;4.20;;;1.00;;
76854;SDS011;66343;44.588;33.450;2023-02-13T00:07:52;6.22;;;1.35;;
76854;SDS011;66343;44.588;33.450;2023-02-13T00:10:22;3.85;;;0.77;;
76854;SDS011;66343;44.588;33.450;2023-02-13T00:12:54;4.75;;;1.00;;
76854;SDS011;66343;44.588;33.450;2023-02-13T00:15:22;5.53;;;1.00;;
76854;SDS011;66343;44.588;33.450;2023-02-13T00:17:54;3.55;;;0.93;;
76854;SDS011;66343;44.588;33.450;2023-02-13T00:20:23;3.60;;;0.80;;
76854;SDS011;66343;44.588;33.450;2023-02-13T00:22:52;3.47;;;0.90;;
76854;SDS011;66343;44.588;33.450;2023-02-13T00:25:21;5.05;;;0.95;;
76854;SDS011;66343;44.588;33.450;2023-02-13T00:27:50;6.20;;;1.10;;
76854;SDS011;66343;44.588;33.450;2023-02-13T00:30:22;8.27;;;1.10;;
76854;SDS011;66343;44.588;33.450;2023-02-13T00:32:51;6.50;;;1.00;;
76854;SDS011;66343;44.588;33.450;2023-02-13T00:35:23;4.05;;;1.02;;
76854;SDS011;66343;44.588;33.450;2023-02-13T00:37:53;3.63;;;0.98;;
76854;SDS011;66343;44.588;33.450;2023-02-13T00:40:26;5.20;;;1.10;;
76854;SDS011;66343;44.588;33.450;2023-02-13T00:42:55;5.78;;;1.10;;
76854;SDS011;66343;44.588;33.450;2023-02-13T00:45:24;3.67;;;0.90;;
76854;SDS011;66343;44.588;33.450;2023-02-13T00:47:55;4.43;;;1.13;;
76854;SDS011;66343;44.588;33.450;2023-02-13T00:50:26;3.47;;;0.80;;
76854;SDS011;66343;44.588;33.450;2023-02-13T00:52:56;5.57;;;1.25;;
76854;SDS011;66343;44.588;33.450;2023-02-13T00:55:25;4.40;;;0.90;;
76854;SDS011;66343;44.588;33.450;2023-02-13T00:57:57;5.45;;;1.25;;
76854;SDS011;66343;44.588;33.450;2023-02-13T01:00:26;4.38;;;1.00;;
76854;SDS011;66343;44.588;33.450;2023-02-13T01:02:58;5.55;;;0.77;;
76854;SDS011;66343;44.588;33.450;2023-02-13T01:05:27;7.07;;;1.10;;
76854;SDS011;66343;44.588;33.450;2023-02-13T01:07:56;3.92;;;0.70;;
76854;SDS011;66343;44.588;33.450;2023-02-13T01:10:25;5.68;;;1.35;;
76854;SDS011;66343;44.588;33.450;2023-02-13T01:12:54;4.75;;;1.10;;
76854;SDS011;66343;44.588;33.450;2023-02-13T01:15:28;3.65;;;0.90;;
76854;SDS011;66343;44.588;33.450;2023-02-13T01:17:57;3.75;;;0.90;;
76854;SDS011;66343;44.588;33.450;2023-02-13T01:20:28;4.43;;;1.02;;
76854;SDS011;66343;44.588;33.450;2023-02-13T01:23:02;5.30;;;1.20;;
76854;SDS011;66343;44.588;33.450;2023-02-13T01:25:31;5.32;;;0.90;;
76854;SDS011;66343;44.588;33.450;2023-02-13T01:28:00;6.45;;;1.30;;
76854;SDS011;66343;44.588;33.450;2023-02-13T01:30:35;3.13;;;0.82;;
76854;SDS011;66343;44.588;33.450;2023-02-13T01:33:04;4.20;;;1.00;;
76854;SDS011;66343;44.588;33.450;2023-02-13T01:35:33;4.28;;;0.90;;
76854;SDS011;66343;44.588;33.450;2023-02-13T01:38:02;5.18;;;1.02;;
76854;SDS011;66343;44.588;33.450;2023-02-13T01:40:33;5.57;;;0.90;;
76854;SDS011;66343;44.588;33.450;2023-02-13T01:43:02;3.97;;;0.90;;
76854;SDS011;66343;44.588;33.450;2023-02-13T01:45:33;6.13;;;1.05;;
76854;SDS011;66343;44.588;33.450;2023-02-13T01:48:18;4.35;;;0.70;;
76854;SDS011;66343;44.588;33.450;2023-02-13T01:50:54;5.22;;;1.08;;
76854;SDS011;66343;44.588;33.450;2023-02-13T01:53:31;4.60;;;1.10;;
76854;SDS011;66343;44.588;33.450;2023-02-13T01:56:12;5.07;;;1.08;;
76854;SDS011;66343;44.588;33.450;2023-02-13T01:58:53;5.45;;;0.90;;
76854;SDS011;66343;44.588;33.450;2023-02-13T02:01:32;3.80;;;0.95;;
76854;SDS011;66343;44.588;33.450;2023-02-13T02:04:09;5.72;;;0.80;;
76854;SDS011;66343;44.588;33.450;2023-02-13T02:06:52;4.88;;;0.90;;
76854;SDS011;66343;44.588;33.450;2023-02-13T02:09:31;4.57;;;1.05;;
76854;SDS011;66343;44.588;33.450;2023-02-13T02:12:13;2.80;;;0.82;;
76854;SDS011;66343;44.588;33.450;2023-02-13T02:14:45;3.38;;;1.00;;
76854;SDS011;66343;44.588;33.450;2023-02-13T02:17:20;5.32;;;0.80;;
76854;SDS011;66343;44.588;33.450;2023-02-13T02:20:00;5.10;;;0.80;;
76854;SDS011;66343;44.588;33.450;2023-02-13T02:26:21;3.78;;;0.80;;
76854;SDS011;66343;44.588;33.450;2023-02-13T02:43:10;4.65;;;0.90;;
76854;SDS011;66343;44.588;33.450;2023-02-13T02:45:53;4.53;;;1.02;;
76854;SDS011;66343;44.588;33.450;2023-02-13T02:48:38;2.60;;;0.88;;
76854;SDS011;66343;44.588;33.450;2023-02-13T02:51:40;7.30;;;1.00;;
76854;SDS011;66343;44.588;33.450;2023-02-13T02:54:22;5.57;;;1.15;;
76854;SDS011;66343;44.588;33.450;2023-02-13T02:57:17;5.47;;;1.10;;
76854;SDS011;66343;44.588;33.450;2023-02-13T02:59:58;4.93;;;0.75;;
76854;SDS011;66343;44.588;33.450;2023-02-13T03:02:48;5.95;;;0.88;;
76854;SDS011;66343;44.588;33.450;2023-02-13T03:05:37;5.03;;;1.17;;
76854;SDS011;66343;44.588;33.450;2023-02-13T03:11:15;7.20;;;1.35;;
76854;SDS011;66343;44.588;33.450;2023-02-13T03:14:06;6.22;;;1.27;;
76854;SDS011;66343;44.588;33.450;2023-02-13T03:16:38;4.35;;;0.80;;
76854;SDS011;66343;44.588;33.450;2023-02-13T03:28:27;6.05;;;1.25;;
76854;SDS011;66343;44.588;33.450;2023-02-13T03:31:30;4.40;;;0.82;;
76854;SDS011;66343;44.588;33.450;2023-02-13T03:34:18;4.72;;;0.93;;
76854;SDS011;66343;44.588;33.450;2023-02-13T03:37:03;4.97;;;1.17;;
76854;SDS011;66343;44.588;33.450;2023-02-13T03:43:43;4.40;;;0.60;;
76854;SDS011;66343;44.588;33.450;2023-02-13T03:46:18;5.55;;;1.00;;
76854;SDS011;66343;44.588;33.450;2023-02-13T03:48:51;4.57;;;0.77;;
76854;SDS011;66343;44.588;33.450;2023-02-13T03:51:44;3.17;;;0.80;;
76854;SDS011;66343;44.588;33.450;2023-02-13T03:54:40;5.00;;;0.88;;
76854;SDS011;66343;44.588;33.450;2023-02-13T03:57:35;5.15;;;1.20;;
76854;SDS011;66343;44.588;33.450;2023-02-13T04:00:31;3.47;;;1.02;;
76854;SDS011;66343;44.588;33.450;2023-02-13T04:03:25;6.05;;;1.38;;
76854;SDS011;66343;44.588;33.450;2023-02-13T04:06:12;10.55;;;2.00;;
76854;SDS011;66343;44.588;33.450;2023-02-13T04:08:47;5.82;;;1.50;;
76854;SDS011;66343;44.588;33.450;2023-02-13T04:11:19;9.07;;;1.73;;
76854;SDS011;66343;44.588;33.450;2023-02-13T04:13:58;4.97;;;1.60;;
76854;SDS011;66343;44.588;33.450;2023-02-13T04:16:48;5.35;;;1.42;;
76854;SDS011;66343;44.588;33.450;2023-02-13T04:19:25;8.23;;;1.50;;
76854;SDS011;66343;44.588;33.450;2023-02-13T04:22:02;5.32;;;1.45;;
76854;SDS011;66343;44.588;33.450;2023-02-13T04:24:31;6.63;;;1.90;;
76854;SDS011;66343;44.588;33.450;2023-02-13T04:27:06;9.73;;;2.05;;
76854;SDS011;66343;44.588;33.450;2023-02-13T04:29:40;12.10;;;2.30;;
76854;SDS011;66343;44.588;33.450;2023-02-13T04:32:15;7.70;;;1.73;;
76854;SDS011;66343;44.588;33.450;2023-02-13T04:34:47;7.50;;;1.52;;
76854;SDS011;66343;44.588;33.450;2023-02-13T04:37:21;10.57;;;2.03;;
76854;SDS011;66343;44.588;33.450;2023-02-13T04:39:52;12.90;;;2.17;;
76854;SDS011;66343;44.588;33.450;2023-02-13T04:42:22;12.00;;;1.90;;
76854;SDS011;66343;44.588;33.450;2023-02-13T04:44:56;11.75;;;2.55;;
76854;SDS011;66343;44.588;33.450;2023-02-13T04:47:25;12.85;;;2.00;;
76854;SDS011;66343;44.588;33.450;2023-02-13T04:49:57;12.70;;;2.50;;
76854;SDS011;66343;44.588;33.450;2023-02-13T04:52:32;11.30;;;1.80;;
76854;SDS011;66343;44.588;33.450;2023-02-13T04:55:07;9.27;;;2.00;;
76854;SDS011;66343;44.588;33.450;2023-02-13T04:57:37;8.73;;;1.85;;
76854;SDS011;66343;44.588;33.450;2023-02-13T05:00:10;11.65;;;2.40;;
76854;SDS011;66343;44.588;33.450;2023-02-13T05:02:46;14.15;;;2.67;;
76854;SDS011;66343;44.588;33.450;2023-02-13T05:05:18;19.20;;;2.85;;
76854;SDS011;66343;44.588;33.450;2023-02-13T05:07:50;10.75;;;2.63;;
76854;SDS011;66343;44.588;33.450;2023-02-13T05:10:24;11.32;;;1.67;;
76854;SDS011;66343;44.588;33.450;2023-02-13T05:12:54;9.70;;;2.25;;
76854;SDS011;66343;44.588;33.450;2023-02-13T05:15:26;9.50;;;2.00;;
76854;SDS011;66343;44.588;33.450;2023-02-13T05:18:00;14.65;;;2.38;;
76854;SDS011;66343;44.588;33.450;2023-02-13T05:20:33;10.88;;;2.53;;
76854;SDS011;66343;44.588;33.450;2023-02-13T05:23:13;16.08;;;3.08;;
76854;SDS011;66343;44.588;33.450;2023-02-13T05:25:55;17.88;;;3.15;;
76854;SDS011;66343;44.588;33.450;2023-02-13T05:28:24;14.77;;;2.63;;
76854;SDS011;66343;44.588;33.450;2023-02-13T05:31:14;13.25;;;3.03;;
76854;SDS011;66343;44.588;33.450;2023-02-13T05:33:50;15.43;;;3.15;;
76854;SDS011;66343;44.588;33.450;2023-02-13T05:36:22;14.23;;;3.13;;
76854;SDS011;66343;44.588;33.450;2023-02-13T05:38:51;17.25;;;2.92;;
76854;SDS011;66343;44.588;33.450;2023-02-13T05:41:20;8.43;;;2.33;;
76854;SDS011;66343;44.588;33.450;2023-02-13T05:43:49;16.58;;;3.83;;
76854;SDS011;66343;44.588;33.450;2023-02-13T05:46:18;14.35;;;3.33;;
76854;SDS011;66343;44.588;33.450;2023-02-13T05:48:50;13.10;;;2.33;;
76854;SDS011;66343;44.588;33.450;2023-02-13T05:51:19;13.98;;;2.75;;
76854;SDS011;66343;44.588;33.450;2023-02-13T05:53:48;12.13;;;3.53;;
76854;SDS011;66343;44.588;33.450;2023-02-13T05:56:18;11.02;;;2.60;;
76854;SDS011;66343;44.588;33.450;2023-02-13T05:58:54;17.40;;;3.25;;
76854;SDS011;66343;44.588;33.450;2023-02-13T06:01:26;14.20;;;2.63;;
76854;SDS011;66343;44.588;33.450;2023-02-13T06:03:56;10.27;;;1.92;;
76854;SDS011;66343;44.588;33.450;2023-02-13T06:06:27;6.43;;;1.48;;
76854;SDS011;66343;44.588;33.450;2023-02-13T06:09:01;14.82;;;2.05;;
76854;SDS011;66343;44.588;33.450;2023-02-13T06:11:33;11.98;;;2.42;;
76854;SDS011;66343;44.588;33.450;2023-02-13T06:14:04;12.85;;;1.80;;
76854;SDS011;66343;44.588;33.450;2023-02-13T06:16:35;7.75;;;1.88;;
76854;SDS011;66343;44.588;33.450;2023-02-13T06:19:07;7.57;;;1.70;;
76854;SDS011;66343;44.588;33.450;2023-02-13T06:21:40;8.23;;;2.25;;
76854;SDS011;66343;44.588;33.450;2023-02-13T06:24:13;8.02;;;1.95;;
76854;SDS011;66343;44.588;33.450;2023-02-13T06:26:42;7.72;;;2.40;;
76854;SDS011;66343;44.588;33.450;2023-02-13T06:29:16;8.40;;;2.00;;
76854;SDS011;66343;44.588;33.450;2023-02-13T06:31:51;13.52;;;2.28;;
76854;SDS011;66343;44.588;33.450;2023-02-13T06:34:20;8.80;;;2.10;;
76854;SDS011;66343;44.588;33.450;2023-02-13T06:36:51;10.70;;;1.98;;
76854;SDS011;66343;44.588;33.450;2023-02-13T06:39:20;8.45;;;1.75;;
76854;SDS011;66343;44.588;33.450;2023-02-13T06:41:50;7.97;;;1.60;;
76854;SDS011;66343;44.588;33.450;2023-02-13T06:44:21;5.70;;;1.55;;
76854;SDS011;66343;44.588;33.450;2023-02-13T06:46:54;9.45;;;1.85;;
76854;SDS011;66343;44.588;33.450;2023-02-13T06:49:24;8.68;;;1.50;;
76854;SDS011;66343;44.588;33.450;2023-02-13T06:51:55;9.32;;;2.53;;
76854;SDS011;66343;44.588;33.450;2023-02-13T06:54:25;9.65;;;1.92;;
76854;SDS011;66343;44.588;33.450;2023-02-13T06:57:13;6.78;;;1.80;;
76854;SDS011;66343;44.588;33.450;2023-02-13T06:59:52;6.03;;;1.23;;
76854;SDS011;66343;44.588;33.450;2023-02-13T07:02:21;6.47;;;1.48;;
76854;SDS011;66343;44.588;33.450;2023-02-13T07:04:51;10.48;;;1.90;;
76854;SDS011;66343;44.588;33.450;2023-02-13T07:07:23;7.85;;;1.52;;
76854;SDS011;66343;44.588;33.450;2023-02-13T07:09:52;12.82;;;1.88;;
76854;SDS011;66343;44.588;33.450;2023-02-13T07:12:24;11.57;;;2.55;;
76854;SDS011;66343;44.588;33.450;2023-02-13T07:14:53;8.40;;;1.65;;
76854;SDS011;66343;44.588;33.450;2023-02-13T07:17:23;8.15;;;1.63;;
76854;SDS011;66343;44.588;33.450;2023-02-13T07:19:57;4.07;;;1.25;;
76854;SDS011;66343;44.588;33.450;2023-02-13T07:22:29;6.45;;;1.50;;
76854;SDS011;66343;44.588;33.450;2023-02-13T07:25:02;6.00;;;1.25;;
76854;SDS011;66343;44.588;33.450;2023-02-13T07:27:31;6.85;;;1.50;;
76854;SDS011;66343;44.588;33.450;2023-02-13T07:30:09;9.40;;;1.63;;
76854;SDS011;66343;44.588;33.450;2023-02-13T07:32:38;11.80;;;2.10;;
76854;SDS011;66343;44.588;33.450;2023-02-13T07:35:11;8.35;;;1.55;;
76854;SDS011;66343;44.588;33.450;2023-02-13T07:37:44;9.05;;;2.10;;
76854;SDS011;66343;44.588;33.450;2023-02-13T07:40:17;6.47;;;1.65;;
76854;SDS011;66343;44.588;33.450;2023-02-13T07:42:46;8.73;;;1.85;;
76854;SDS011;66343;44.588;33.450;2023-02-13T07:45:19;6.15;;;1.67;;
76854;SDS011;66343;44.588;33.450;2023-02-13T07:47:48;6.65;;;1.77;;
76854;SDS011;66343;44.588;33.450;2023-02-13T07:50:23;6.80;;;1.80;;
76854;SDS011;66343;44.588;33.450;2023-02-13T07:53:01;8.70;;;2.33;;
76854;SDS011;66343;44.588;33.450;2023-02-13T07:55:31;7.45;;;1.90;;
76854;SDS011;66343;44.588;33.450;2023-02-13T07:58:06;12.32;;;2.10;;
76854;SDS011;66343;44.588;33.450;2023-02-13T08:00:38;5.45;;;1.33;;
76854;SDS011;66343;44.588;33.450;2023-02-13T08:03:08;4.95;;;1.20;;
76854;SDS011;66343;44.588;33.450;2023-02-13T08:05:42;9.38;;;1.67;;
76854;SDS011;66343;44.588;33.450;2023-02-13T08:08:21;6.78;;;1.65;;
76854;SDS011;66343;44.588;33.450;2023-02-13T08:10:55;7.97;;;1.88;;
76854;SDS011;66343;44.588;33.450;2023-02-13T08:14:05;5.93;;;1.63;;
76854;SDS011;66343;44.588;33.450;2023-02-13T08:16:34;7.60;;;1.83;;
76854;SDS011;66343;44.588;33.450;2023-02-13T08:19:04;9.75;;;1.60;;
76854;SDS011;66343;44.588;33.450;2023-02-13T08:21:36;7.57;;;1.80;;
76854;SDS011;66343;44.588;33.450;2023-02-13T08:24:08;5.20;;;1.25;;
76854;SDS011;66343;44.588;33.450;2023-02-13T08:26:40;6.68;;;1.40;;
76854;SDS011;66343;44.588;33.450;2023-02-13T08:29:13;7.72;;;1.90;;
76854;SDS011;66343;44.588;33.450;2023-02-13T08:31:45;8.32;;;1.60;;
76854;SDS011;66343;44.588;33.450;2023-02-13T08:34:17;6.55;;;1.50;;
76854;SDS011;66343;44.588;33.450;2023-02-13T08:36:51;5.18;;;1.20;;
76854;SDS011;66343;44.588;33.450;2023-02-13T08:39:23;10.98;;;1.50;;
76854;SDS011;66343;44.588;33.450;2023-02-13T08:41:53;11.02;;;1.77;;
76854;SDS011;66343;44.588;33.450;2023-02-13T08:44:25;9.05;;;2.50;;
76854;SDS011;66343;44.588;33.450;2023-02-13T08:47:01;10.43;;;1.70;;
76854;SDS011;66343;44.588;33.450;2023-02-13T08:49:35;7.47;;;1.50;;
76854;SDS011;66343;44.588;33.450;2023-02-13T08:52:07;8.38;;;1.60;;
76854;SDS011;66343;44.588;33.450;2023-02-13T08:54:36;8.30;;;1.67;;
76854;SDS011;66343;44.588;33.450;2023-02-13T09:01:48;8.93;;;1.45;;
76854;SDS011;66343;44.588;33.450;2023-02-13T09:04:20;7.30;;;1.67;;
76854;SDS011;66343;44.588;33.450;2023-02-13T09:06:52;13.95;;;4.60;;
76854;SDS011;66343;44.588;33.450;2023-02-13T09:09:27;6.82;;;1.48;;
76854;SDS011;66343;44.588;33.450;2023-02-13T09:11:58;6.07;;;1.38;;
76854;SDS011;66343;44.588;33.450;2023-02-13T09:14:28;8.85;;;1.75;;
76854;SDS011;66343;44.588;33.450;2023-02-13T09:16:59;10.50;;;2.00;;
76854;SDS011;66343;44.588;33.450;2023-02-13T09:19:31;6.63;;;1.40;;
76854;SDS011;66343;44.588;33.450;2023-02-13T09:22:03;8.65;;;1.52;;
76854;SDS011;66343;44.588;33.450;2023-02-13T09:24:35;6.35;;;1.10;;
76854;SDS011;66343;44.588;33.450;2023-02-13T09:27:05;6.10;;;1.15;;
76854;SDS011;66343;44.588;33.450;2023-02-13T09:29:38;7.80;;;1.45;;
76854;SDS011;66343;44.588;33.450;2023-02-13T09:32:10;9.82;;;1.58;;
76854;SDS011;66343;44.588;33.450;2023-02-13T09:34:43;9.43;;;1.65;;
76854;SDS011;66343;44.588;33.450;2023-02-13T09:37:17;4.03;;;1.10;;
76854;SDS011;66343;44.588;33.450;2023-02-13T09:39:54;5.57;;;1.30;;
76854;SDS011;66343;44.588;33.450;2023-02-13T09:42:25;6.90;;;1.10;;
76854;SDS011;66343;44.588;33.450;2023-02-13T09:45:04;5.03;;;1.13;;
76854;SDS011;66343;44.588;33.450;2023-02-13T09:47:40;6.68;;;1.20;;
76854;SDS011;66343;44.588;33.450;2023-02-13T09:52:54;7.90;;;1.95;;
76854;SDS011;66343;44.588;33.450;2023-02-13T09:56:06;4.82;;;1.38;;
76854;SDS011;66343;44.588;33.450;2023-02-13T10:01:18;4.75;;;1.00;;
76854;SDS011;66343;44.588;33.450;2023-02-13T10:06:47;8.55;;;1.92;;
76854;SDS011;66343;44.588;33.450;2023-02-13T10:12:27;4.65;;;1.20;;
76854;SDS011;66343;44.588;33.450;2023-02-13T10:18:20;4.65;;;1.25;;
76854;SDS011;66343;44.588;33.450;2023-02-13T10:21:05;4.82;;;1.42;;
76854;SDS011;66343;44.588;33.450;2023-02-13T10:24:25;8.80;;;1.92;;
76854;SDS011;66343;44.588;33.450;2023-02-13T10:26:35;4.40;;;0.95;;
76854;SDS011;66343;44.588;33.450;2023-02-13T10:32:05;7.15;;;1.35;;
76854;SDS011;66343;44.588;33.450;2023-02-13T10:34:45;6.40;;;1.23;;
76854;SDS011;66343;44.588;33.450;2023-02-13T10:37:18;8.10;;;1.20;;
76854;SDS011;66343;44.588;33.450;2023-02-13T10:39:50;3.55;;;0.93;;
76854;SDS011;66343;44.588;33.450;2023-02-13T10:42:42;7.43;;;1.50;;
76854;SDS011;66343;44.588;33.450;2023-02-13T10:56:31;6.53;;;1.00;;
76854;SDS011;66343;44.588;33.450;2023-02-13T10:59:32;3.80;;;1.10;;
76854;SDS011;66343;44.588;33.450;2023-02-13T11:02:27;6.40;;;1.88;;
76854;SDS011;66343;44.588;33.450;2023-02-13T11:05:04;3.85;;;1.20;;
76854;SDS011;66343;44.588;33.450;2023-02-13T11:07:48;4.10;;;1.00;;
76854;SDS011;66343;44.588;33.450;2023-02-13T11:10:24;6.75;;;1.15;;
76854;SDS011;66343;44.588;33.450;2023-02-13T11:12:58;7.03;;;1.20;;
76854;SDS011;66343;44.588;33.450;2023-02-13T11:16:08;4.43;;;1.00;;
76854;SDS011;66343;44.588;33.450;2023-02-13T11:18:42;3.45;;;0.80;;
76854;SDS011;66343;44.588;33.450;2023-02-13T11:21:22;4.30;;;0.90;;
76854;SDS011;66343;44.588;33.450;2023-02-13T11:24:07;4.43;;;0.93;;
76854;SDS011;66343;44.588;33.450;2023-02-13T11:26:49;5.35;;;1.02;;
76854;SDS011;66343;44.588;33.450;2023-02-13T11:29:35;7.82;;;1.10;;
76854;SDS011;66343;44.588;33.450;2023-02-13T11:32:08;3.83;;;0.75;;
76854;SDS011;66343;44.588;33.450;2023-02-13T11:34:48;7.32;;;1.00;;
76854;SDS011;66343;44.588;33.450;2023-02-13T11:37:24;6.22;;;0.82;;
76854;SDS011;66343;44.588;33.450;2023-02-13T11:40:02;4.05;;;0.90;;
76854;SDS011;66343;44.588;33.450;2023-02-13T11:43:13;5.68;;;0.70;;
76854;SDS011;66343;44.588;33.450;2023-02-13T11:46:08;3.60;;;0.80;;
76854;SDS011;66343;44.588;33.450;2023-02-13T11:48:50;4.43;;;0.93;;
76854;SDS011;66343;44.588;33.450;2023-02-13T11:54:25;3.05;;;0.80;;
76854;SDS011;66343;44.588;33.450;2023-02-13T11:57:27;2.38;;;0.60;;
76854;SDS011;66343;44.588;33.450;2023-02-13T12:00:46;4.63;;;1.27;;
76854;SDS011;66343;44.588;33.450;2023-02-13T12:03:29;3.00;;;0.50;;
76854;SDS011;66343;44.588;33.450;2023-02-13T12:08:46;4.45;;;0.70;;
76854;SDS011;66343;44.588;33.450;2023-02-13T12:14:07;5.47;;;1.00;;
76854;SDS011;66343;44.588;33.450;2023-02-13T12:19:44;7.32;;;0.90;;
76854;SDS011;66343;44.588;33.450;2023-02-13T12:33:58;4.38;;;1.00;;
76854;SDS011;66343;44.588;33.450;2023-02-13T12:42:50;4.45;;;0.95;;
76854;SDS011;66343;44.588;33.450;2023-02-13T12:45:40;6.47;;;0.90;;
76854;SDS011;66343;44.588;33.450;2023-02-13T12:51:44;4.78;;;0.70;;
76854;SDS011;66343;44.588;33.450;2023-02-13T12:54:41;3.88;;;0.70;;
76854;SDS011;66343;44.588;33.450;2023-02-13T12:57:46;3.63;;;0.70;;
76854;SDS011;66343;44.588;33.450;2023-02-13T13:12:20;4.85;;;0.90;;
76854;SDS011;66343;44.588;33.450;2023-02-13T13:15:02;4.40;;;1.02;;
76854;SDS011;66343;44.588;33.450;2023-02-13T13:23:34;4.03;;;0.90;;
76854;SDS011;66343;44.588;33.450;2023-02-13T13:29:14;4.20;;;0.80;;
76854;SDS011;66343;44.588;33.450;2023-02-13T13:31:59;4.82;;;0.90;;
76854;SDS011;66343;44.588;33.450;2023-02-13T13:34:31;4.78;;;1.35;;
76854;SDS011;66343;44.588;33.450;2023-02-13T13:37:08;6.50;;;1.00;;
76854;SDS011;66343;44.588;33.450;2023-02-13T13:40:02;5.20;;;1.00;;
76854;SDS011;66343;44.588;33.450;2023-02-13T13:42:52;5.35;;;1.15;;
76854;SDS011;66343;44.588;33.450;2023-02-13T13:51:25;4.22;;;0.70;;
76854;SDS011;66343;44.588;33.450;2023-02-13T14:17:00;5.40;;;1.02;;
76854;SDS011;66343;44.588;33.450;2023-02-13T14:25:34;4.28;;;0.90;;
76854;SDS011;66343;44.588;33.450;2023-02-13T14:28:02;5.38;;;1.20;;
76854;SDS011;66343;44.588;33.450;2023-02-13T14:30:38;3.88;;;0.85;;
76854;SDS011;66343;44.588;33.450;2023-02-13T14:33:27;4.43;;;1.08;;
76854;SDS011;66343;44.588;33.450;2023-02-13T14:36:25;5.80;;;1.20;;
76854;SDS011;66343;44.588;33.450;2023-02-13T14:39:06;2.47;;;0.70;;
76854;SDS011;66343;44.588;33.450;2023-02-13T14:50:13;5.47;;;0.90;;
76854;SDS011;66343;44.588;33.450;2023-02-13T14:53:00;5.00;;;1.00;;
76854;SDS011;66343;44.588;33.450;2023-02-13T14:55:39;3.92;;;0.85;;
76854;SDS011;66343;44.588;33.450;2023-02-13T14:58:24;3.72;;;0.82;;
76854;SDS011;66343;44.588;33.450;2023-02-13T15:03:43;6.60;;;1.30;;
76854;SDS011;66343;44.588;33.450;2023-02-13T15:06:32;4.30;;;0.95;;
76854;SDS011;66343;44.588;33.450;2023-02-13T15:09:16;5.30;;;0.82;;
76854;SDS011;66343;44.588;33.450;2023-02-13T15:11:51;4.13;;;1.00;;
76854;SDS011;66343;44.588;33.450;2023-02-13T15:14:31;4.20;;;0.80;;
76854;SDS011;66343;44.588;33.450;2023-02-13T15:17:15;4.10;;;0.88;;
76854;SDS011;66343;44.588;33.450;2023-02-13T15:19:50;3.67;;;1.10;;
76854;SDS011;66343;44.588;33.450;2023-02-13T15:22:33;5.18;;;0.93;;
76854;SDS011;66343;44.588;33.450;2023-02-13T15:25:06;5.75;;;0.77;;
76854;SDS011;66343;44.588;33.450;2023-02-13T15:27:51;3.88;;;0.82;;
76854;SDS011;66343;44.588;33.450;2023-02-13T15:30:29;6.22;;;1.00;;
76854;SDS011;66343;44.588;33.450;2023-02-13T15:33:16;4.65;;;1.20;;
76854;SDS011;66343;44.588;33.450;2023-02-13T15:35:54;7.00;;;1.10;;
76854;SDS011;66343;44.588;33.450;2023-02-13T15:38:30;4.30;;;0.70;;
76854;SDS011;66343;44.588;33.450;2023-02-13T15:41:14;6.28;;;0.98;;
76854;SDS011;66343;44.588;33.450;2023-02-13T15:43:49;5.07;;;1.00;;
76854;SDS011;66343;44.588;33.450;2023-02-13T15:46:25;8.00;;;1.00;;
76854;SDS011;66343;44.588;33.450;2023-02-13T15:49:14;5.93;;;1.02;;
76854;SDS011;66343;44.588;33.450;2023-02-13T15:51:46;3.92;;;0.82;;
76854;SDS011;66343;44.588;33.450;2023-02-13T15:57:09;4.13;;;1.00;;
76854;SDS011;66343;44.588;33.450;2023-02-13T15:59:43;5.32;;;1.13;;
76854;SDS011;66343;44.588;33.450;2023-02-13T16:02:23;6.22;;;1.30;;
76854;SDS011;66343;44.588;33.450;2023-02-13T16:05:00;7.43;;;1.30;;
76854;SDS011;66343;44.588;33.450;2023-02-13T16:07:50;5.82;;;1.10;;
76854;SDS011;66343;44.588;33.450;2023-02-13T16:10:29;4.63;;;0.90;;
76854;SDS011;66343;44.588;33.450;2023-02-13T16:13:13;8.23;;;1.30;;
76854;SDS011;66343;44.588;33.450;2023-02-13T16:15:48;5.72;;;1.23;;
76854;SDS011;66343;44.588;33.450;2023-02-13T16:18:18;4.05;;;0.80;;
76854;SDS011;66343;44.588;33.450;2023-02-13T16:20:54;3.05;;;0.80;;
76854;SDS011;66343;44.588;33.450;2023-02-13T16:23:24;5.68;;;0.95;;
76854;SDS011;66343;44.588;33.450;2023-02-13T16:26:05;3.55;;;0.95;;
76854;SDS011;66343;44.588;33.450;2023-02-13T16:28:45;6.13;;;0.80;;
76854;SDS011;66343;44.588;33.450;2023-02-13T16:31:16;8.32;;;1.65;;
76854;SDS011;66343;44.588;33.450;2023-02-13T16:33:48;5.32;;;0.75;;
76854;SDS011;66343;44.588;33.450;2023-02-13T16:36:23;4.88;;;0.90;;
76854;SDS011;66343;44.588;33.450;2023-02-13T16:38:56;5.55;;;0.80;;
76854;SDS011;66343;44.588;33.450;2023-02-13T16:41:40;3.65;;;0.85;;
76854;SDS011;66343;44.588;33.450;2023-02-13T16:44:33;6.05;;;0.90;;
76854;SDS011;66343;44.588;33.450;2023-02-13T16:47:11;4.55;;;1.05;;
76854;SDS011;66343;44.588;33.450;2023-02-13T16:49:55;4.82;;;1.00;;
76854;SDS011;66343;44.588;33.450;2023-02-13T16:52:35;5.10;;;0.82;;
76854;SDS011;66343;44.588;33.450;2023-02-13T16:55:12;4.97;;;1.10;;
76854;SDS011;66343;44.588;33.450;2023-02-13T16:57:47;3.53;;;0.70;;
76854;SDS011;66343;44.588;33.450;2023-02-13T17:00:20;3.88;;;1.00;;
76854;SDS011;66343;44.588;33.450;2023-02-13T17:02:55;6.68;;;0.93;;
76854;SDS011;66343;44.588;33.450;2023-02-13T17:05:26;3.38;;;0.63;;
76854;SDS011;66343;44.588;33.450;2023-02-13T17:08:00;2.65;;;0.80;;
76854;SDS011;66343;44.588;33.450;2023-02-13T17:10:32;4.47;;;0.80;;
76854;SDS011;66343;44.588;33.450;2023-02-13T17:13:16;2.58;;;0.63;;
76854;SDS011;66343;44.588;33.450;2023-02-13T17:15:50;4.38;;;1.10;;
76854;SDS011;66343;44.588;33.450;2023-02-13T17:18:23;3.85;;;0.90;;
76854;SDS011;66343;44.588;33.450;2023-02-13T17:20:57;5.60;;;0.73;;
76854;SDS011;66343;44.588;33.450;2023-02-13T17:23:33;6.28;;;0.70;;
76854;SDS011;66343;44.588;33.450;2023-02-13T17:26:11;6.07;;;0.93;;
76854;SDS011;66343;44.588;33.450;2023-02-13T17:28:41;2.38;;;0.70;;
76854;SDS011;66343;44.588;33.450;2023-02-13T17:31:14;5.40;;;0.90;;
76854;SDS011;66343;44.588;33.450;2023-02-13T17:33:44;5.57;;;1.10;;
76854;SDS011;66343;44.588;33.450;2023-02-13T17:36:15;2.45;;;0.40;;
76854;SDS011;66343;44.588;33.450;2023-02-13T17:38:48;4.53;;;0.70;;
76854;SDS011;66343;44.588;33.450;2023-02-13T17:41:20;3.25;;;0.88;;
76854;SDS011;66343;44.588;33.450;2023-02-13T17:43:53;1.98;;;0.60;;
76854;SDS011;66343;44.588;33.450;2023-02-13T17:46:26;4.45;;;0.80;;
76854;SDS011;66343;44.588;33.450;2023-02-13T17:48:57;5.80;;;1.23;;
76854;SDS011;66343;44.588;33.450;2023-02-13T17:51:34;3.42;;;0.60;;
76854;SDS011;66343;44.588;33.450;2023-02-13T17:54:13;2.85;;;0.57;;
76854;SDS011;66343;44.588;33.450;2023-02-13T17:56:45;4.03;;;0.90;;
76854;SDS011;66343;44.588;33.450;2023-02-13T17:59:24;3.00;;;0.70;;
76854;SDS011;66343;44.588;33.450;2023-02-13T18:01:54;12.13;;;3.05;;
76854;SDS011;66343;44.588;33.450;2023-02-13T18:04:26;4.25;;;0.73;;
76854;SDS011;66343;44.588;33.450;2023-02-13T18:06:58;3.20;;;0.70;;
76854;SDS011;66343;44.588;33.450;2023-02-13T18:09:31;3.97;;;0.80;;
76854;SDS011;66343;44.588;33.450;2023-02-13T18:12:02;4.22;;;0.90;;
76854;SDS011;66343;44.588;33.450;2023-02-13T18:17:07;3.53;;;0.63;;
76854;SDS011;66343;44.588;33.450;2023-02-13T18:19:37;3.28;;;0.60;;